Time;durP1;ratioP1;P1;durP2;ratioP2;P2;SDS_P1;SDS_P2;PMS_P1;PMS_P2;Temp;Humidity;BMP_temperature;BMP_pressure;BME280_temperature;BME280_humidity;BME280_pressure;Samples;Min_cycle;Max_cycle;Signal;HPM_P1;HPM_P2
2022/01/08 00:00:00;;;;;;;;;;;;;;;;;;2106472;28;20288;-49
2022/01/08 00:01:01;;;;;;;;;;;;;;;;;;2106110;28;19931;-49
2022/01/08 00:02:03;;;;;;;;;;;;;;;;;;2104207;28;20023;-50
2022/01/08 00:03:04;;;;;;;;;;;;;;;;;;2098170;28;20016;-49
2022/01/08 00:04:05;;;;;;;;;;;;;;;;;;2100347;28;19928;-49
2022/01/08 00:05:06;;;;;;;;;;;;;;;;;;2102283;28;19920;-50
2022/01/08 00:06:07;;;;;;;;;;;;;;;;;;2098031;28;19920;-50
2022/01/08 00:07:07;;;;;;;;;;;;;;;;;;2102730;28;19924;-48
2022/01/08 00:08:08;;;;;;;;;;;;;;;;;;2114796;28;19924;-49
2022/01/08 00:09:09;;;;;;;;;;;;;;;;;;2114882;28;19969;-53
2022/01/08 00:10:10;;;;;;;;;;;;;;;;;;2104934;28;20308;-49
2022/01/08 00:11:14;;;;;;;;;;;;;;;;;;2106489;28;19920;-49
2022/01/08 00:12:18;;;;;;;;;;;;;;;;;;2105411;28;20315;-49
2022/01/08 00:13:19;;;;;;;;;;;;;;;;;;2108265;28;19935;-49
2022/01/08 00:14:22;;;;;;;;;;;;;;;;;;2114918;28;20273;-49
2022/01/08 00:15:23;;;;;;;;;;;;;;;;;;2111350;28;20435;-49
2022/01/08 00:16:24;;;;;;;;;;;;;;;;;;2106194;28;19927;-48
2022/01/08 00:17:24;;;;;;;;;;;;;;;;;;2106574;28;19927;-48
2022/01/08 00:18:26;;;;;;;;;;;;;;;;;;2105192;28;19920;-48
2022/01/08 00:19:26;;;;;;;;;;;;;;;;;;2106507;28;19920;-49
2022/01/08 00:20:28;;;;;;;;;;;;;;;;;;2106318;28;20000;-48
2022/01/08 00:21:29;;;;;;;;;;;;;;;;;;2108248;28;19920;-49
2022/01/08 00:22:29;;;;;;;;;;;;;;;;;;2114694;28;19920;-48
2022/01/08 00:23:30;;;;;;;;;;;;;;;;;;2111056;28;19965;-48
2022/01/08 00:24:31;;;;;;;;;;;;;;;;;;2101564;28;19963;-49
2022/01/08 00:25:32;;;;;;;;;;;;;;;;;;2097911;28;19920;-48
2022/01/08 00:26:33;;;;;;;;;;;;;;;;;;2101268;28;20475;-49
2022/01/08 00:27:34;;;;;;;;;;;;;;;;;;2101035;28;19921;-48
2022/01/08 00:28:35;;;;;;;;;;;;;;;;;;2098109;28;19924;-49
2022/01/08 00:29:35;;;;;;;;;;;;;;;;;;2102166;28;19955;-49
2022/01/08 00:30:36;;;;;;;;;;;;;;;;;;2106283;28;19927;-49
2022/01/08 00:31:37;;;;;;;;;;;;;;;;;;2106236;28;19927;-48
2022/01/08 00:32:38;;;;;;;;;;;;;;;;;;2102724;28;19924;-52
2022/01/08 00:33:39;;;;;;;;;;;;;;;;;;2098007;28;19934;-50
2022/01/08 00:34:40;;;;;;;;;;;;;;;;;;2097523;28;19920;-49
2022/01/08 00:35:42;;;;;;;;;;;;;;;;;;2101684;28;20370;-49
2022/01/08 00:36:42;;;;;;;;;;;;;;;;;;2102551;28;19920;-48
2022/01/08 00:37:43;;;;;;;;;;;;;;;;;;2104119;28;19924;-48
2022/01/08 00:38:44;;;;;;;;;;;;;;;;;;2110453;28;19920;-48
2022/01/08 00:39:47;;;;;;;;;;;;;;;;;;2114837;28;19927;-47
2022/01/08 00:40:48;;;;;;;;;;;;;;;;;;2103161;28;20061;-49
2022/01/08 00:41:48;;;;;;;;;;;;;;;;;;2105979;28;19923;-51
2022/01/08 00:42:49;;;;;;;;;;;;;;;;;;2106418;28;19920;-48
2022/01/08 00:43:50;;;;;;;;;;;;;;;;;;2103733;28;19920;-49
2022/01/08 00:44:51;;;;;;;;;;;;;;;;;;2097990;28;19921;-49
2022/01/08 00:45:52;;;;;;;;;;;;;;;;;;2097993;28;20297;-48
2022/01/08 00:46:52;;;;;;;;;;;;;;;;;;2104603;28;19928;-48
2022/01/08 00:47:53;;;;;;;;;;;;;;;;;;2114532;28;19926;-49
2022/01/08 00:48:54;;;;;;;;;;;;;;;;;;2113467;28;20361;-48
2022/01/08 00:49:55;;;;;;;;;;;;;;;;;;2102739;28;19920;-48
2022/01/08 00:50:56;;;;;;;;;;;;;;;;;;2099441;28;19920;-48
2022/01/08 00:51:58;;;;;;;;;;;;;;;;;;2099906;28;19968;-49
2022/01/08 00:52:59;;;;;;;;;;;;;;;;;;2101921;28;20395;-49
2022/01/08 00:54:00;;;;;;;;;;;;;;;;;;2099437;28;19920;-49
2022/01/08 00:55:00;;;;;;;;;;;;;;;;;;2103089;28;20323;-49
2022/01/08 00:56:01;;;;;;;;;;;;;;;;;;2100257;28;19931;-49
2022/01/08 00:57:02;;;;;;;;;;;;;;;;;;2099449;28;20159;-48
2022/01/08 00:58:03;;;;;;;;;;;;;;;;;;2102657;28;19924;-51
2022/01/08 00:59:04;;;;;;;;;;;;;;;;;;2099246;28;19920;-48
2022/01/08 01:00:05;;;;;;;;;;;;;;;;;;2099241;28;20441;-49
2022/01/08 01:01:06;;;;;;;;;;;;;;;;;;2108230;28;19919;-48
2022/01/08 01:02:07;;;;;;;;;;;;;;;;;;2116281;28;19926;-49
2022/01/08 01:03:08;;;;;;;;;;;;;;;;;;2114487;28;19926;-48
2022/01/08 01:04:09;;;;;;;;;;;;;;;;;;2102301;28;19964;-48
2022/01/08 01:05:10;;;;;;;;;;;;;;;;;;2099264;28;19920;-49
2022/01/08 01:06:10;;;;;;;;;;;;;;;;;;2101829;28;20357;-48
2022/01/08 01:07:11;;;;;;;;;;;;;;;;;;2103087;28;19920;-50
2022/01/08 01:08:12;;;;;;;;;;;;;;;;;;2099099;28;19920;-49
2022/01/08 01:09:13;;;;;;;;;;;;;;;;;;2100637;28;19920;-50
2022/01/08 01:10:15;;;;;;;;;;;;;;;;;;2116017;28;19974;-48
2022/01/08 01:11:16;;;;;;;;;;;;;;;;;;2115951;28;20403;-49
2022/01/08 01:12:17;;;;;;;;;;;;;;;;;;2105745;28;19924;-49
2022/01/08 01:13:38;;;;;;;;;;;;;;;;;;2099291;28;19924;-48
2022/01/08 01:14:39;;;;;;;;;;;;;;;;;;2101194;28;19928;-49
2022/01/08 01:15:40;;;;;;;;;;;;;;;;;;2101834;28;20296;-49
2022/01/08 01:16:40;;;;;;;;;;;;;;;;;;2099162;28;19920;-49
2022/01/08 01:17:41;;;;;;;;;;;;;;;;;;2103047;28;19920;-49
2022/01/08 01:18:42;;;;;;;;;;;;;;;;;;2107458;28;19920;-49
2022/01/08 01:19:43;;;;;;;;;;;;;;;;;;2107588;28;19924;-49
2022/01/08 01:20:44;;;;;;;;;;;;;;;;;;2108018;28;19927;-49
2022/01/08 01:21:45;;;;;;;;;;;;;;;;;;2115918;28;20006;-49
2022/01/08 01:22:53;;;;;;;;;;;;;;;;;;2116023;28;20374;-48
2022/01/08 01:23:54;;;;;;;;;;;;;;;;;;2102938;28;20015;-48
2022/01/08 01:25:02;;;;;;;;;;;;;;;;;;2099290;28;20007;-50
2022/01/08 01:26:06;;;;;;;;;;;;;;;;;;2101776;28;20432;-52
2022/01/08 01:27:36;;;;;;;;;;;;;;;;;;2114943;28;19923;-48
2022/01/08 01:28:45;;;;;;;;;;;;;;;;;;2113317;28;20030;-48
2022/01/08 01:29:53;;;;;;;;;;;;;;;;;;2102132;28;20011;-49
2022/01/08 01:41:54;;;;;;;;;;;;;;;;;;2099018;28;20452;-52
2022/01/08 01:43:20;;;;;;;;;;;;;;;;;;2099479;28;19927;-51
2022/01/08 01:47:01;;;;;;;;;;;;;;;;;;2106793;28;19964;-50
2022/01/08 01:48:01;;;;;;;;;;;;;;;;;;2107322;28;21347;-49
2022/01/08 01:49:02;;;;;;;;;;;;;;;;;;2106357;28;19927;-49
2022/01/08 01:50:03;;;;;;;;;;;;;;;;;;2107277;28;19920;-48
2022/01/08 01:51:04;;;;;;;;;;;;;;;;;;2107399;28;19920;-48
2022/01/08 01:52:05;;;;;;;;;;;;;;;;;;2106257;28;20285;-49
2022/01/08 01:53:06;;;;;;;;;;;;;;;;;;2098971;28;20289;-48
2022/01/08 01:54:06;;;;;;;;;;;;;;;;;;2098493;28;19934;-50
2022/01/08 01:55:07;;;;;;;;;;;;;;;;;;2102689;28;19928;-49
2022/01/08 01:56:08;;;;;;;;;;;;;;;;;;2098997;28;20459;-49
2022/01/08 01:57:09;;;;;;;;;;;;;;;;;;2099542;28;19928;-49
2022/01/08 01:58:09;;;;;;;;;;;;;;;;;;2112468;28;19968;-48
2022/01/08 01:59:10;;;;;;;;;;;;;;;;;;2115783;28;19927;-49
2022/01/08 02:00:11;;;;;;;;;;;;;;;;;;2109462;28;20315;-51
2022/01/08 02:01:12;;;;;;;;;;;;;;;;;;2114717;28;19920;-49
2022/01/08 02:02:13;;;;;;;;;;;;;;;;;;2115382;28;20002;-48
2022/01/08 02:03:14;;;;;;;;;;;;;;;;;;2106435;28;20396;-49
2022/01/08 02:04:15;;;;;;;;;;;;;;;;;;2098930;28;19927;-49
2022/01/08 02:05:16;;;;;;;;;;;;;;;;;;2098889;28;19928;-49
2022/01/08 02:06:16;;;;;;;;;;;;;;;;;;2104766;28;19920;-48
2022/01/08 02:07:17;;;;;;;;;;;;;;;;;;2107203;28;19965;-49
2022/01/08 02:08:18;;;;;;;;;;;;;;;;;;2106754;28;19920;-48
2022/01/08 02:09:19;;;;;;;;;;;;;;;;;;2111007;28;20022;-49
2022/01/08 02:10:20;;;;;;;;;;;;;;;;;;2115744;28;19920;-49
2022/01/08 02:11:21;;;;;;;;;;;;;;;;;;2111737;28;19997;-49
2022/01/08 02:12:25;;;;;;;;;;;;;;;;;;2114392;28;19927;-49
2022/01/08 02:13:26;;;;;;;;;;;;;;;;;;2115607;28;19920;-51
2022/01/08 02:14:27;;;;;;;;;;;;;;;;;;2108068;28;19938;-52
2022/01/08 02:15:27;;;;;;;;;;;;;;;;;;2099189;28;20152;-50
2022/01/08 02:16:28;;;;;;;;;;;;;;;;;;2098845;28;19920;-48
2022/01/08 02:17:29;;;;;;;;;;;;;;;;;;2102370;28;19920;-45
2022/01/08 02:18:30;;;;;;;;;;;;;;;;;;2098963;28;19920;-45
2022/01/08 02:19:31;;;;;;;;;;;;;;;;;;2098636;28;19920;-45
2022/01/08 02:20:32;;;;;;;;;;;;;;;;;;2106836;28;19920;-45
2022/01/08 02:21:32;;;;;;;;;;;;;;;;;;2098778;28;19927;-45
2022/01/08 02:22:33;;;;;;;;;;;;;;;;;;2098858;28;19921;-45
2022/01/08 02:23:34;;;;;;;;;;;;;;;;;;2105840;28;20124;-45
2022/01/08 02:24:35;;;;;;;;;;;;;;;;;;2107130;28;20381;-45
2022/01/08 02:25:35;;;;;;;;;;;;;;;;;;2105047;28;19924;-46
2022/01/08 02:26:36;;;;;;;;;;;;;;;;;;2113604;28;20131;-46
2022/01/08 02:27:37;;;;;;;;;;;;;;;;;;2107426;28;19920;-45
2022/01/08 02:28:38;;;;;;;;;;;;;;;;;;2104652;28;19920;-44
2022/01/08 02:29:39;;;;;;;;;;;;;;;;;;2107081;28;19924;-45
2022/01/08 02:30:40;;;;;;;;;;;;;;;;;;2107161;28;20430;-45
2022/01/08 02:31:40;;;;;;;;;;;;;;;;;;2106670;28;19927;-45
2022/01/08 02:32:42;;;;;;;;;;;;;;;;;;2098723;28;19927;-46
2022/01/08 02:33:42;;;;;;;;;;;;;;;;;;2098422;28;19978;-45
2022/01/08 02:34:44;;;;;;;;;;;;;;;;;;2102524;28;20394;-45
2022/01/08 02:35:45;;;;;;;;;;;;;;;;;;2098468;28;20006;-45
2022/01/08 02:36:46;;;;;;;;;;;;;;;;;;2101475;28;19924;-46
2022/01/08 02:37:46;;;;;;;;;;;;;;;;;;2112831;28;19919;-44
2022/01/08 02:38:48;;;;;;;;;;;;;;;;;;2115615;28;19920;-46
2022/01/08 02:39:49;;;;;;;;;;;;;;;;;;2108976;28;20073;-44
2022/01/08 02:40:54;;;;;;;;;;;;;;;;;;2099779;28;20503;-45
2022/01/08 02:41:58;;;;;;;;;;;;;;;;;;2098439;28;19920;-46
2022/01/08 02:43:02;;;;;;;;;;;;;;;;;;2102067;28;20007;-45
2022/01/08 02:44:02;;;;;;;;;;;;;;;;;;2098610;28;20373;-45
2022/01/08 02:45:03;;;;;;;;;;;;;;;;;;2099114;28;19920;-45
2022/01/08 02:46:04;;;;;;;;;;;;;;;;;;2110720;28;19919;-46
2022/01/08 02:47:05;;;;;;;;;;;;;;;;;;2115317;28;19936;-45
2022/01/08 02:48:05;;;;;;;;;;;;;;;;;;2113340;28;19976;-45
2022/01/08 02:49:06;;;;;;;;;;;;;;;;;;2105427;28;19920;-44
2022/01/08 02:50:07;;;;;;;;;;;;;;;;;;2106968;28;19927;-44
2022/01/08 02:51:08;;;;;;;;;;;;;;;;;;2105475;28;19920;-44
2022/01/08 02:52:09;;;;;;;;;;;;;;;;;;2114142;28;19931;-45
2022/01/08 02:53:10;;;;;;;;;;;;;;;;;;2115602;28;19927;-44
2022/01/08 02:54:11;;;;;;;;;;;;;;;;;;2106982;28;20281;-44
2022/01/08 02:55:11;;;;;;;;;;;;;;;;;;2098600;28;19920;-45
2022/01/08 02:56:12;;;;;;;;;;;;;;;;;;2098447;28;19920;-44
2022/01/08 02:57:13;;;;;;;;;;;;;;;;;;2101912;28;20361;-44
2022/01/08 02:58:14;;;;;;;;;;;;;;;;;;2098536;28;19950;-44
2022/01/08 02:59:15;;;;;;;;;;;;;;;;;;2099069;28;19920;-45
2022/01/08 03:00:15;;;;;;;;;;;;;;;;;;2109655;28;20296;-45
2022/01/08 03:01:16;;;;;;;;;;;;;;;;;;2115453;28;19924;-44
2022/01/08 03:02:17;;;;;;;;;;;;;;;;;;2111818;28;19989;-44
2022/01/08 03:03:18;;;;;;;;;;;;;;;;;;2105622;28;20327;-45
2022/01/08 03:04:19;;;;;;;;;;;;;;;;;;2106997;28;19924;-45
2022/01/08 03:05:20;;;;;;;;;;;;;;;;;;2103860;28;19927;-44
2022/01/08 03:06:21;;;;;;;;;;;;;;;;;;2114623;28;20272;-44
2022/01/08 03:07:22;;;;;;;;;;;;;;;;;;2115262;28;20319;-45
2022/01/08 03:08:22;;;;;;;;;;;;;;;;;;2105520;28;19943;-45
2022/01/08 03:09:27;;;;;;;;;;;;;;;;;;2106803;28;20365;-44
2022/01/08 03:10:28;;;;;;;;;;;;;;;;;;2106823;28;20380;-45
2022/01/08 03:11:28;;;;;;;;;;;;;;;;;;2105122;28;19931;-44
2022/01/08 03:12:30;;;;;;;;;;;;;;;;;;2098423;28;20305;-44
2022/01/08 03:13:31;;;;;;;;;;;;;;;;;;2099622;28;19920;-45
2022/01/08 03:14:32;;;;;;;;;;;;;;;;;;2105893;28;19959;-44
2022/01/08 03:15:33;;;;;;;;;;;;;;;;;;2106774;28;19920;-44
2022/01/08 03:16:34;;;;;;;;;;;;;;;;;;2104537;28;19921;-45
2022/01/08 03:17:35;;;;;;;;;;;;;;;;;;2112714;28;19919;-44
2022/01/08 03:18:37;;;;;;;;;;;;;;;;;;2115233;28;19923;-45
2022/01/08 03:19:39;;;;;;;;;;;;;;;;;;2110004;28;19951;-45
2022/01/08 03:20:47;;;;;;;;;;;;;;;;;;2106591;28;20069;-44
2022/01/08 03:21:52;;;;;;;;;;;;;;;;;;2106883;28;20007;-44
2022/01/08 03:23:00;;;;;;;;;;;;;;;;;;2108173;28;19970;-45
2022/01/08 03:24:02;;;;;;;;;;;;;;;;;;2115316;28;19958;-44
2022/01/08 03:25:02;;;;;;;;;;;;;;;;;;2109420;28;19970;-44
2022/01/08 03:26:03;;;;;;;;;;;;;;;;;;2100365;28;19966;-45
2022/01/08 03:27:04;;;;;;;;;;;;;;;;;;2098495;28;20027;-44
2022/01/08 03:28:05;;;;;;;;;;;;;;;;;;2101120;28;20318;-44
2022/01/08 03:29:07;;;;;;;;;;;;;;;;;;2098862;28;20365;-45
2022/01/08 03:30:08;;;;;;;;;;;;;;;;;;2098495;28;20015;-44
2022/01/08 03:31:09;;;;;;;;;;;;;;;;;;2103957;28;19921;-44
2022/01/08 03:32:10;;;;;;;;;;;;;;;;;;2115137;28;19920;-44
2022/01/08 03:33:11;;;;;;;;;;;;;;;;;;2114082;28;19920;-45
2022/01/08 03:34:12;;;;;;;;;;;;;;;;;;2102235;28;20350;-44
2022/01/08 03:35:13;;;;;;;;;;;;;;;;;;2098586;28;19920;-45
2022/01/08 03:36:14;;;;;;;;;;;;;;;;;;2100222;28;19920;-46
2022/01/08 03:37:14;;;;;;;;;;;;;;;;;;2104097;28;19973;-45
2022/01/08 03:38:15;;;;;;;;;;;;;;;;;;2098324;28;19928;-44
2022/01/08 03:39:17;;;;;;;;;;;;;;;;;;2101198;28;19944;-45
2022/01/08 03:40:18;;;;;;;;;;;;;;;;;;2109665;28;20014;-44
2022/01/08 03:41:20;;;;;;;;;;;;;;;;;;2106729;28;19924;-45
2022/01/08 03:42:21;;;;;;;;;;;;;;;;;;2104169;28;19920;-45
2022/01/08 03:43:21;;;;;;;;;;;;;;;;;;2106685;28;19946;-45
2022/01/08 03:44:22;;;;;;;;;;;;;;;;;;2106532;28;20292;-44
2022/01/08 03:45:23;;;;;;;;;;;;;;;;;;2107300;28;19928;-45
2022/01/08 03:46:27;;;;;;;;;;;;;;;;;;2115045;28;19919;-45
2022/01/08 03:47:41;;;;;;;;;;;;;;;;;;2106232;28;20006;-44
2022/01/08 03:48:47;;;;;;;;;;;;;;;;;;2100164;28;19920;-44
2022/01/08 03:49:48;;;;;;;;;;;;;;;;;;2098268;28;19958;-45
2022/01/08 03:50:49;;;;;;;;;;;;;;;;;;2101008;28;19920;-45
2022/01/08 03:51:49;;;;;;;;;;;;;;;;;;2098085;28;19928;-44
2022/01/08 03:52:50;;;;;;;;;;;;;;;;;;2098877;28;19920;-45
2022/01/08 03:53:51;;;;;;;;;;;;;;;;;;2105766;28;19966;-44
2022/01/08 03:54:52;;;;;;;;;;;;;;;;;;2106608;28;19920;-44
2022/01/08 03:55:52;;;;;;;;;;;;;;;;;;2106241;28;20561;-44
2022/01/08 03:56:53;;;;;;;;;;;;;;;;;;2102531;28;20361;-44
2022/01/08 03:57:54;;;;;;;;;;;;;;;;;;2098203;28;19924;-45
2022/01/08 03:58:55;;;;;;;;;;;;;;;;;;2103409;28;19927;-44
2022/01/08 03:59:56;;;;;;;;;;;;;;;;;;2099492;28;20281;-44
2022/01/08 04:00:57;;;;;;;;;;;;;;;;;;2098137;28;19920;-44
2022/01/08 04:01:57;;;;;;;;;;;;;;;;;;2103328;28;19920;-45
2022/01/08 04:02:58;;;;;;;;;;;;;;;;;;2106538;28;19931;-45
2022/01/08 04:03:59;;;;;;;;;;;;;;;;;;2106717;28;19920;-44
2022/01/08 04:05:00;;;;;;;;;;;;;;;;;;2106401;28;20360;-45
2022/01/08 04:06:01;;;;;;;;;;;;;;;;;;2098232;28;19931;-45
2022/01/08 04:07:02;;;;;;;;;;;;;;;;;;2097808;28;19977;-45
2022/01/08 04:08:03;;;;;;;;;;;;;;;;;;2103927;28;20423;-45
2022/01/08 04:09:04;;;;;;;;;;;;;;;;;;2098195;28;19921;-45
2022/01/08 04:10:07;;;;;;;;;;;;;;;;;;2100331;28;19920;-44
2022/01/08 04:11:08;;;;;;;;;;;;;;;;;;2111972;28;20010;-45
2022/01/08 04:12:09;;;;;;;;;;;;;;;;;;2114823;28;19920;-44
2022/01/08 04:13:12;;;;;;;;;;;;;;;;;;2108644;28;20011;-44
2022/01/08 04:14:15;;;;;;;;;;;;;;;;;;2098268;28;19952;-45
2022/01/08 04:15:37;;;;;;;;;;;;;;;;;;2098182;28;20003;-44
2022/01/08 04:16:42;;;;;;;;;;;;;;;;;;2103239;28;20007;-44
2022/01/08 04:17:43;;;;;;;;;;;;;;;;;;2098049;28;20443;-44
2022/01/08 04:18:44;;;;;;;;;;;;;;;;;;2101882;28;19919;-44
2022/01/08 04:19:44;;;;;;;;;;;;;;;;;;2105831;28;19972;-45
2022/01/08 04:21:03;;;;;;;;;;;;;;;;;;2106470;28;19924;-45
2022/01/08 04:22:11;;;;;;;;;;;;;;;;;;2105027;28;19926;-44
2022/01/08 04:23:14;;;;;;;;;;;;;;;;;;2106396;28;20003;-44
2022/01/08 04:24:14;;;;;;;;;;;;;;;;;;2104788;28;20006;-45
2022/01/08 04:25:15;;;;;;;;;;;;;;;;;;2100218;28;20150;-45
2022/01/08 04:26:16;;;;;;;;;;;;;;;;;;2097856;28;19924;-45
2022/01/08 04:27:17;;;;;;;;;;;;;;;;;;2100780;28;20010;-44
2022/01/08 04:28:18;;;;;;;;;;;;;;;;;;2105571;28;19920;-45
2022/01/08 04:29:18;;;;;;;;;;;;;;;;;;2106475;28;19930;-45
2022/01/08 04:30:19;;;;;;;;;;;;;;;;;;2103229;28;19993;-45
2022/01/08 04:31:20;;;;;;;;;;;;;;;;;;2098041;28;19926;-45
2022/01/08 04:32:21;;;;;;;;;;;;;;;;;;2097987;28;19927;-45
2022/01/08 04:33:22;;;;;;;;;;;;;;;;;;2107344;28;19920;-45
2022/01/08 04:34:22;;;;;;;;;;;;;;;;;;2114741;28;20022;-44
2022/01/08 04:35:23;;;;;;;;;;;;;;;;;;2112726;28;19920;-44
2022/01/08 04:36:24;;;;;;;;;;;;;;;;;;2105760;28;20339;-45
2022/01/08 04:37:25;;;;;;;;;;;;;;;;;;2106241;28;20422;-44
2022/01/08 04:38:26;;;;;;;;;;;;;;;;;;2104820;28;19920;-45
2022/01/08 04:39:27;;;;;;;;;;;;;;;;;;2101750;28;19920;-45
2022/01/08 04:40:28;;;;;;;;;;;;;;;;;;2102900;28;20018;-45
2022/01/08 04:41:29;;;;;;;;;;;;;;;;;;2102898;28;19974;-45
2022/01/08 04:42:30;;;;;;;;;;;;;;;;;;2114642;28;20014;-45
2022/01/08 04:43:30;;;;;;;;;;;;;;;;;;2114721;28;19919;-44
2022/01/08 04:44:31;;;;;;;;;;;;;;;;;;2106816;28;20330;-45
2022/01/08 04:45:32;;;;;;;;;;;;;;;;;;2106387;28;19920;-44
2022/01/08 04:46:33;;;;;;;;;;;;;;;;;;2105782;28;19920;-45
2022/01/08 04:47:34;;;;;;;;;;;;;;;;;;2108159;28;19927;-45
2022/01/08 04:48:35;;;;;;;;;;;;;;;;;;2114548;28;19926;-44
2022/01/08 04:49:36;;;;;;;;;;;;;;;;;;2111217;28;19919;-48
2022/01/08 04:50:36;;;;;;;;;;;;;;;;;;2110203;28;19926;-48
2022/01/08 04:51:37;;;;;;;;;;;;;;;;;;2114713;28;20379;-50
2022/01/08 04:52:38;;;;;;;;;;;;;;;;;;2111354;28;19974;-48
2022/01/08 04:53:39;;;;;;;;;;;;;;;;;;2104931;28;19967;-52
2022/01/08 04:54:40;;;;;;;;;;;;;;;;;;2106319;28;19942;-49
2022/01/08 04:55:41;;;;;;;;;;;;;;;;;;2103435;28;19920;-48
2022/01/08 04:56:42;;;;;;;;;;;;;;;;;;2114524;28;19920;-51
2022/01/08 04:57:42;;;;;;;;;;;;;;;;;;2114579;28;19919;-48
2022/01/08 04:58:43;;;;;;;;;;;;;;;;;;2105232;28;19924;-50
2022/01/08 04:59:44;;;;;;;;;;;;;;;;;;2098060;28;19920;-48
2022/01/08 05:00:45;;;;;;;;;;;;;;;;;;2097828;28;20399;-49
2022/01/08 05:01:46;;;;;;;;;;;;;;;;;;2105776;28;19951;-50
2022/01/08 05:02:46;;;;;;;;;;;;;;;;;;2097915;28;19920;-49
2022/01/08 05:03:47;;;;;;;;;;;;;;;;;;2099182;28;19920;-50
2022/01/08 05:04:48;;;;;;;;;;;;;;;;;;2111441;28;19924;-51
2022/01/08 05:05:49;;;;;;;;;;;;;;;;;;2114649;28;19942;-49
2022/01/08 05:06:50;;;;;;;;;;;;;;;;;;2108522;28;20376;-51
2022/01/08 05:07:51;;;;;;;;;;;;;;;;;;2099488;28;20289;-48
2022/01/08 05:08:52;;;;;;;;;;;;;;;;;;2097770;28;19921;-48
2022/01/08 05:09:53;;;;;;;;;;;;;;;;;;2101009;28;19920;-48
2022/01/08 05:10:53;;;;;;;;;;;;;;;;;;2097938;28;19974;-48
2022/01/08 05:11:54;;;;;;;;;;;;;;;;;;2098027;28;19928;-49
2022/01/08 05:12:55;;;;;;;;;;;;;;;;;;2103780;28;19920;-48
2022/01/08 05:13:56;;;;;;;;;;;;;;;;;;2106296;28;19920;-49
2022/01/08 05:14:57;;;;;;;;;;;;;;;;;;2105227;28;19927;-49
2022/01/08 05:15:59;;;;;;;;;;;;;;;;;;2103690;28;20015;-50
2022/01/08 05:17:01;;;;;;;;;;;;;;;;;;2097595;28;19964;-48
2022/01/08 05:18:05;;;;;;;;;;;;;;;;;;2101060;28;19931;-49
2022/01/08 05:19:05;;;;;;;;;;;;;;;;;;2100156;28;20412;-51
2022/01/08 05:20:06;;;;;;;;;;;;;;;;;;2097663;28;19920;-49
2022/01/08 05:21:17;;;;;;;;;;;;;;;;;;2100142;28;20407;-49
2022/01/08 05:22:23;;;;;;;;;;;;;;;;;;2097717;28;19920;-49
2022/01/08 05:23:24;;;;;;;;;;;;;;;;;;2097419;28;20266;-48
2022/01/08 05:24:25;;;;;;;;;;;;;;;;;;2108101;28;19969;-48
2022/01/08 05:25:26;;;;;;;;;;;;;;;;;;2114518;28;20351;-50
2022/01/08 05:26:27;;;;;;;;;;;;;;;;;;2110452;28;19920;-50
2022/01/08 05:27:28;;;;;;;;;;;;;;;;;;2110269;28;19923;-49
2022/01/08 05:28:28;;;;;;;;;;;;;;;;;;2114375;28;19930;-49
2022/01/08 05:29:29;;;;;;;;;;;;;;;;;;2108699;28;19972;-49
2022/01/08 05:30:30;;;;;;;;;;;;;;;;;;2112251;28;19919;-49
2022/01/08 05:31:31;;;;;;;;;;;;;;;;;;2114557;28;19926;-49
2022/01/08 05:32:32;;;;;;;;;;;;;;;;;;2106788;28;19947;-48
2022/01/08 05:33:33;;;;;;;;;;;;;;;;;;2097804;28;19920;-50
2022/01/08 05:34:34;;;;;;;;;;;;;;;;;;2097800;28;19920;-49
2022/01/08 05:35:34;;;;;;;;;;;;;;;;;;2103592;28;20019;-49
2022/01/08 05:36:35;;;;;;;;;;;;;;;;;;2114750;28;19927;-49
2022/01/08 05:37:36;;;;;;;;;;;;;;;;;;2114995;28;20284;-50
2022/01/08 05:38:37;;;;;;;;;;;;;;;;;;2109705;28;19919;-48
2022/01/08 05:39:38;;;;;;;;;;;;;;;;;;2116008;28;19958;-51
2022/01/08 05:40:39;;;;;;;;;;;;;;;;;;2107083;28;19973;-48
2022/01/08 05:41:39;;;;;;;;;;;;;;;;;;2111860;28;20019;-48
2022/01/08 05:42:40;;;;;;;;;;;;;;;;;;2115799;28;20308;-49
2022/01/08 05:43:41;;;;;;;;;;;;;;;;;;2112400;28;19920;-49
2022/01/08 05:44:42;;;;;;;;;;;;;;;;;;2101359;28;19920;-49
2022/01/08 05:45:43;;;;;;;;;;;;;;;;;;2099135;28;19924;-48
2022/01/08 05:46:46;;;;;;;;;;;;;;;;;;2102311;28;19919;-51
2022/01/08 05:47:47;;;;;;;;;;;;;;;;;;2107328;28;20012;-47
2022/01/08 05:48:48;;;;;;;;;;;;;;;;;;2107357;28;19920;-50
2022/01/08 05:49:49;;;;;;;;;;;;;;;;;;2104260;28;20008;-48
2022/01/08 05:50:50;;;;;;;;;;;;;;;;;;2098958;28;19920;-49
2022/01/08 05:51:51;;;;;;;;;;;;;;;;;;2099640;28;19974;-50
2022/01/08 05:52:51;;;;;;;;;;;;;;;;;;2110295;28;20303;-50
2022/01/08 05:53:52;;;;;;;;;;;;;;;;;;2115683;28;19920;-49
2022/01/08 05:54:53;;;;;;;;;;;;;;;;;;2112454;28;19974;-48
2022/01/08 05:55:54;;;;;;;;;;;;;;;;;;2103497;28;19920;-48
2022/01/08 05:56:55;;;;;;;;;;;;;;;;;;2098967;28;20352;-48
2022/01/08 05:57:56;;;;;;;;;;;;;;;;;;2102737;28;20006;-52
2022/01/08 05:58:56;;;;;;;;;;;;;;;;;;2107097;28;20357;-49
2022/01/08 05:59:57;;;;;;;;;;;;;;;;;;2107358;28;20292;-49
2022/01/08 06:00:58;;;;;;;;;;;;;;;;;;2106310;28;19920;-50
2022/01/08 06:01:59;;;;;;;;;;;;;;;;;;2107198;28;19968;-50
2022/01/08 06:03:00;;;;;;;;;;;;;;;;;;2107087;28;19920;-48
2022/01/08 06:04:01;;;;;;;;;;;;;;;;;;2105193;28;20093;-48
2022/01/08 06:05:02;;;;;;;;;;;;;;;;;;2107459;28;19924;-48
2022/01/08 06:06:03;;;;;;;;;;;;;;;;;;2105794;28;20285;-49
2022/01/08 06:07:04;;;;;;;;;;;;;;;;;;2101749;28;19963;-53
2022/01/08 06:08:04;;;;;;;;;;;;;;;;;;2098838;28;19928;-48
2022/01/08 06:09:05;;;;;;;;;;;;;;;;;;2101174;28;20402;-49
2022/01/08 06:10:06;;;;;;;;;;;;;;;;;;2112616;28;19920;-49
2022/01/08 06:11:07;;;;;;;;;;;;;;;;;;2115399;28;19973;-49
2022/01/08 06:12:08;;;;;;;;;;;;;;;;;;2108502;28;19920;-49
2022/01/08 06:13:09;;;;;;;;;;;;;;;;;;2099663;28;20450;-50
2022/01/08 06:14:09;;;;;;;;;;;;;;;;;;2102978;28;19920;-48
2022/01/08 06:15:10;;;;;;;;;;;;;;;;;;2104089;28;19920;-50
2022/01/08 06:16:11;;;;;;;;;;;;;;;;;;2098779;28;19924;-50
2022/01/08 06:17:12;;;;;;;;;;;;;;;;;;2098809;28;19920;-49
2022/01/08 06:18:14;;;;;;;;;;;;;;;;;;2102126;28;20341;-52
2022/01/08 06:19:15;;;;;;;;;;;;;;;;;;2098888;28;19927;-49
2022/01/08 06:20:16;;;;;;;;;;;;;;;;;;2098377;28;19939;-49
2022/01/08 06:21:16;;;;;;;;;;;;;;;;;;2110974;28;19919;-49
2022/01/08 06:22:17;;;;;;;;;;;;;;;;;;2115681;28;19920;-48
2022/01/08 06:23:18;;;;;;;;;;;;;;;;;;2111320;28;19923;-49
2022/01/08 06:24:19;;;;;;;;;;;;;;;;;;2113178;28;20335;-49
2022/01/08 06:25:20;;;;;;;;;;;;;;;;;;2115942;28;19926;-50
2022/01/08 06:26:21;;;;;;;;;;;;;;;;;;2109365;28;19920;-49
2022/01/08 06:27:21;;;;;;;;;;;;;;;;;;2106958;28;20420;-49
2022/01/08 06:28:22;;;;;;;;;;;;;;;;;;2107158;28;20410;-48
2022/01/08 06:29:23;;;;;;;;;;;;;;;;;;2103844;28;19928;-46
2022/01/08 06:30:24;;;;;;;;;;;;;;;;;;2107099;28;19920;-44
2022/01/08 06:31:25;;;;;;;;;;;;;;;;;;2106722;28;20002;-45
2022/01/08 06:32:26;;;;;;;;;;;;;;;;;;2103445;28;19928;-44
2022/01/08 06:33:26;;;;;;;;;;;;;;;;;;2098845;28;19920;-44
2022/01/08 06:34:27;;;;;;;;;;;;;;;;;;2100428;28;20386;-45
2022/01/08 06:35:28;;;;;;;;;;;;;;;;;;2106084;28;19931;-44
2022/01/08 06:36:29;;;;;;;;;;;;;;;;;;2106925;28;20270;-45
2022/01/08 06:37:30;;;;;;;;;;;;;;;;;;2106226;28;19924;-45
2022/01/08 06:38:31;;;;;;;;;;;;;;;;;;2114248;28;19920;-45
2022/01/08 06:39:31;;;;;;;;;;;;;;;;;;2115587;28;19951;-46
2022/01/08 06:40:32;;;;;;;;;;;;;;;;;;2106572;28;19920;-46
2022/01/08 06:41:33;;;;;;;;;;;;;;;;;;2115344;28;19924;-45
2022/01/08 06:42:34;;;;;;;;;;;;;;;;;;2115606;28;20376;-50
2022/01/08 06:43:34;;;;;;;;;;;;;;;;;;2104464;28;19927;-49
2022/01/08 06:44:35;;;;;;;;;;;;;;;;;;2098876;28;19921;-49
2022/01/08 06:45:37;;;;;;;;;;;;;;;;;;2098190;28;20415;-49
2022/01/08 06:46:37;;;;;;;;;;;;;;;;;;2108557;28;19920;-50
2022/01/08 06:47:38;;;;;;;;;;;;;;;;;;2114881;28;20060;-49
2022/01/08 06:48:40;;;;;;;;;;;;;;;;;;2111113;28;19930;-50
2022/01/08 06:49:41;;;;;;;;;;;;;;;;;;2111548;28;19920;-48
2022/01/08 06:50:42;;;;;;;;;;;;;;;;;;2115535;28;19946;-49
2022/01/08 06:51:43;;;;;;;;;;;;;;;;;;2112967;28;19919;-50
2022/01/08 06:52:43;;;;;;;;;;;;;;;;;;2100569;28;19924;-48
2022/01/08 06:53:44;;;;;;;;;;;;;;;;;;2098696;28;19924;-48
2022/01/08 06:54:45;;;;;;;;;;;;;;;;;;2104410;28;20289;-49
2022/01/08 06:55:46;;;;;;;;;;;;;;;;;;2098668;28;19950;-49
2022/01/08 06:56:47;;;;;;;;;;;;;;;;;;2098403;28;20370;-50
2022/01/08 06:57:48;;;;;;;;;;;;;;;;;;2107765;28;19931;-49
2022/01/08 06:58:49;;;;;;;;;;;;;;;;;;2115300;28;20376;-49
2022/01/08 06:59:50;;;;;;;;;;;;;;;;;;2113915;28;20391;-49
2022/01/08 07:00:51;;;;;;;;;;;;;;;;;;2105115;28;19920;-49
2022/01/08 07:01:52;;;;;;;;;;;;;;;;;;2106811;28;19969;-48
2022/01/08 07:02:52;;;;;;;;;;;;;;;;;;2104683;28;20007;-48
2022/01/08 07:03:55;;;;;;;;;;;;;;;;;;2111938;28;20386;-49
2022/01/08 07:04:55;;;;;;;;;;;;;;;;;;2115281;28;19920;-49
2022/01/08 07:05:56;;;;;;;;;;;;;;;;;;2108301;28;19920;-49
2022/01/08 07:06:58;;;;;;;;;;;;;;;;;;2099350;28;19920;-49
2022/01/08 07:07:59;;;;;;;;;;;;;;;;;;2098402;28;20011;-48
2022/01/08 07:09:00;;;;;;;;;;;;;;;;;;2102734;28;20399;-50
2022/01/08 07:10:01;;;;;;;;;;;;;;;;;;2107143;28;19927;-46
2022/01/08 07:11:02;;;;;;;;;;;;;;;;;;2107013;28;20429;-45
2022/01/08 07:12:02;;;;;;;;;;;;;;;;;;2109124;28;19920;-45
2022/01/08 07:13:03;;;;;;;;;;;;;;;;;;2115257;28;19919;-45